createdAt,value
2019-05-21T00:02:27.863Z,12.40
2019-05-21T00:05:19.440Z,12.40
2019-05-21T00:08:06.476Z,12.40
2019-05-21T00:10:35.108Z,12.40
2019-05-21T00:13:15.811Z,12.40
2019-05-21T00:15:49.710Z,12.40
2019-05-21T00:18:25.321Z,12.40
2019-05-21T00:21:09.095Z,12.40
2019-05-21T00:23:43.532Z,12.40
2019-05-21T00:26:22.093Z,12.40
2019-05-21T00:29:29.912Z,12.40
2019-05-21T00:32:36.716Z,12.30
2019-05-21T00:35:49.484Z,12.40
2019-05-21T00:38:57.895Z,12.20
2019-05-21T00:42:11.940Z,12.30
2019-05-21T00:44:43.985Z,12.40
2019-05-21T00:47:32.381Z,12.30
2019-05-21T00:50:07.024Z,12.30
2019-05-21T00:52:43.606Z,12.30
2019-05-21T00:55:40.491Z,12.40
2019-05-21T00:58:31.345Z,12.50
2019-05-21T01:01:05.930Z,12.60
2019-05-21T01:03:44.633Z,12.60
2019-05-21T01:06:20.562Z,12.50
2019-05-21T01:08:55.056Z,12.40
2019-05-21T01:11:29.856Z,12.30
2019-05-21T01:14:01.633Z,12.40
2019-05-21T01:16:39.383Z,12.50
2019-05-21T01:19:10.865Z,12.50
2019-05-21T01:21:42.842Z,12.40
2019-05-21T01:24:14.294Z,12.50
2019-05-21T01:26:45.677Z,12.50
2019-05-21T01:29:16.920Z,12.60
2019-05-21T01:32:04.373Z,12.60
2019-05-21T01:34:42.925Z,12.60
2019-05-21T01:37:12.572Z,12.50
2019-05-21T01:39:44.259Z,12.40
2019-05-21T01:42:14.067Z,12.50
2019-05-21T01:45:01.150Z,12.40
2019-05-21T01:47:42.673Z,12.50
2019-05-21T01:50:14.419Z,12.50
2019-05-21T01:52:48.252Z,12.40
2019-05-21T01:55:16.831Z,12.40
2019-05-21T01:57:48.210Z,12.50
2019-05-21T02:00:19.789Z,12.50
2019-05-21T02:02:53.423Z,12.40
2019-05-21T02:05:32.741Z,12.40
2019-05-21T02:08:02.794Z,12.30
2019-05-21T02:11:01.636Z,12.30
2019-05-21T02:13:32.415Z,12.30
2019-05-21T02:16:07.451Z,12.20
2019-05-21T02:18:42.617Z,12.20
2019-05-21T02:21:17.112Z,12.10
2019-05-21T02:23:53.443Z,12.10
2019-05-21T02:26:24.857Z,12.20
2019-05-21T02:28:59.194Z,12.10
2019-05-21T02:31:44.295Z,12.10
2019-05-21T02:34:12.961Z,12.10
2019-05-21T02:36:51.084Z,12.10
2019-05-21T02:39:20.567Z,12.10
2019-05-21T02:41:51.852Z,12.10
2019-05-21T02:44:23.612Z,12.10
2019-05-21T02:46:53.337Z,12.10
2019-05-21T02:49:34.035Z,12.10
2019-05-21T02:52:02.712Z,12.10
2019-05-21T02:54:49.892Z,12.00
2019-05-21T02:57:43.868Z,12.00
2019-05-21T03:00:38.774Z,12.00
2019-05-21T03:03:35.404Z,11.90
2019-05-21T03:06:13.871Z,12.00
2019-05-21T03:08:42.321Z,12.00
2019-05-21T03:11:13.023Z,12.00
2019-05-21T03:13:42.661Z,11.90
2019-05-21T03:16:17.609Z,12.00
2019-05-21T03:18:49.182Z,12.00
2019-05-21T03:21:22.921Z,12.00
2019-05-21T03:23:52.632Z,12.00
2019-05-21T03:26:22.196Z,12.10
2019-05-21T03:28:50.850Z,11.90
2019-05-21T03:31:39.196Z,11.90
2019-05-21T03:34:13.830Z,11.90
2019-05-21T03:36:49.386Z,11.90
2019-05-21T03:39:20.635Z,11.90
2019-05-21T03:41:52.332Z,11.90
2019-05-21T03:44:24.002Z,11.90
2019-05-21T03:46:58.839Z,11.80
2019-05-21T03:49:33.251Z,11.80
2019-05-21T03:52:10.927Z,11.80
2019-05-21T03:54:40.545Z,11.70
2019-05-21T03:57:17.972Z,11.70
2019-05-21T03:59:52.448Z,11.70
2019-05-21T04:02:20.958Z,11.70
2019-05-21T04:04:52.253Z,11.80
2019-05-21T04:07:20.926Z,11.80
2019-05-21T04:09:51.622Z,11.80
2019-05-21T04:12:26.113Z,11.80
2019-05-21T04:15:05.668Z,11.70
2019-05-21T04:17:38.485Z,11.70
2019-05-21T04:20:09.459Z,11.70
2019-05-21T04:22:39.708Z,11.80
2019-05-21T04:25:23.152Z,11.90
2019-05-21T04:27:51.845Z,11.70
2019-05-21T04:30:23.080Z,11.80
2019-05-21T04:32:54.296Z,11.90
2019-05-21T04:35:34.997Z,11.80
2019-05-21T04:38:12.677Z,11.70
2019-05-21T04:40:42.252Z,11.50
2019-05-21T04:43:18.959Z,11.40
2019-05-21T04:45:54.876Z,11.50
2019-05-21T04:48:36.542Z,11.60
2019-05-21T04:51:08.182Z,11.70
2019-05-21T04:53:36.775Z,11.80
2019-05-21T04:56:06.367Z,11.70
2019-05-21T04:58:37.996Z,11.80
2019-05-21T05:01:05.798Z,11.90
2019-05-21T05:03:34.466Z,11.90
2019-05-21T05:06:05.139Z,11.80
2019-05-21T05:08:36.355Z,11.80
2019-05-21T05:11:05.948Z,11.80
2019-05-21T05:13:37.562Z,11.90
2019-05-21T05:16:15.922Z,11.90
2019-05-21T05:18:57.532Z,12.10
2019-05-21T05:21:29.223Z,12.20
2019-05-21T05:23:58.695Z,12.30
2019-05-21T05:26:46.984Z,12.20
2019-05-21T05:29:19.368Z,12.20
2019-05-21T05:31:50.726Z,12.30
2019-05-21T05:34:22.001Z,12.30
2019-05-21T05:36:56.489Z,12.40
2019-05-21T05:39:25.263Z,12.50
2019-05-21T05:41:57.945Z,12.50
2019-05-21T05:44:27.511Z,12.60
2019-05-21T05:47:08.337Z,12.70
2019-05-21T05:49:39.578Z,12.70
2019-05-21T05:52:10.909Z,12.80
2019-05-21T05:54:39.512Z,12.90
2019-05-21T05:57:21.908Z,13.00
2019-05-21T05:59:53.700Z,13.10
2019-05-21T06:02:24.402Z,13.20
2019-05-21T06:04:59.436Z,13.20
2019-05-21T06:07:28.216Z,13.20
2019-05-21T06:10:05.950Z,13.30
2019-05-21T06:12:45.091Z,13.40
2019-05-21T06:15:26.140Z,13.70
2019-05-21T06:17:57.345Z,13.80
2019-05-21T06:20:31.737Z,13.90
2019-05-21T06:23:01.349Z,13.80
2019-05-21T06:25:35.857Z,13.80
2019-05-21T06:28:06.601Z,13.80
2019-05-21T06:30:37.918Z,13.90
2019-05-21T06:33:06.678Z,14.10
2019-05-21T06:35:40.628Z,14.30
2019-05-21T06:38:17.550Z,14.40
2019-05-21T06:40:51.529Z,14.30
2019-05-21T06:43:25.936Z,14.50
2019-05-21T06:46:00.441Z,14.40
2019-05-21T06:48:32.140Z,14.40
2019-05-21T06:51:00.797Z,14.40
2019-05-21T06:53:29.395Z,14.50
2019-05-21T06:56:00.076Z,14.40
2019-05-21T06:58:31.568Z,14.40
2019-05-21T07:01:09.961Z,14.30
2019-05-21T07:03:42.294Z,14.20
2019-05-21T07:06:16.896Z,14.20
2019-05-21T07:08:58.635Z,14.30
2019-05-21T07:11:27.443Z,14.40
2019-05-21T07:13:56.112Z,14.30
2019-05-21T07:16:30.863Z,14.50
2019-05-21T07:19:03.330Z,14.50
2019-05-21T07:21:34.729Z,14.50
2019-05-21T07:24:09.348Z,14.50
2019-05-21T07:26:40.833Z,14.40
2019-05-21T07:29:12.234Z,14.40
2019-05-21T07:31:48.893Z,14.60
2019-05-21T07:34:36.255Z,14.50
2019-05-21T07:37:18.124Z,14.50
2019-05-21T07:39:54.923Z,14.50
2019-05-21T07:42:26.305Z,14.40
2019-05-21T07:44:57.736Z,14.40
2019-05-21T07:47:27.547Z,14.40
2019-05-21T07:49:59.307Z,14.40
2019-05-21T07:52:33.956Z,14.70
2019-05-21T07:55:08.666Z,14.70
2019-05-21T07:57:52.240Z,14.80
2019-05-21T08:00:21.249Z,14.80
2019-05-21T08:02:57.739Z,14.60
2019-05-21T08:05:48.768Z,14.40
2019-05-21T08:08:28.519Z,14.30
2019-05-21T08:11:29.293Z,14.40
2019-05-21T08:14:14.726Z,14.50
2019-05-21T08:16:43.358Z,14.10
2019-05-21T08:19:14.641Z,14.30
2019-05-21T08:21:49.083Z,14.80
2019-05-21T08:24:21.456Z,15.10
2019-05-21T08:26:50.095Z,15.50
2019-05-21T08:29:24.579Z,15.50
2019-05-21T08:31:53.258Z,15.90
2019-05-21T08:34:25.039Z,16.30
2019-05-21T08:36:59.695Z,16.50
2019-05-21T08:39:31.091Z,16.60
2019-05-21T08:42:09.781Z,16.50
2019-05-21T08:44:47.287Z,16.30
2019-05-21T08:47:51.473Z,16.30
2019-05-21T08:50:30.663Z,16.50
2019-05-21T08:53:06.370Z,17.00
2019-05-21T08:55:40.884Z,17.90
2019-05-21T08:58:15.253Z,18.00
2019-05-21T09:00:49.955Z,18.90
2019-05-21T09:03:20.575Z,19.10
2019-05-21T09:05:54.971Z,19.00
2019-05-21T09:08:26.583Z,18.70
2019-05-21T09:10:55.499Z,18.60
2019-05-21T09:13:26.879Z,18.40
2019-05-21T09:15:54.755Z,19.10
2019-05-21T09:18:23.475Z,19.40
2019-05-21T09:20:57.810Z,18.60
2019-05-21T09:23:29.490Z,18.20
2019-05-21T09:26:08.412Z,18.40
2019-05-21T09:28:39.172Z,18.00
2019-05-21T09:31:13.902Z,18.10
2019-05-21T09:33:45.551Z,18.00
2019-05-21T09:36:19.922Z,18.90
2019-05-21T09:39:00.463Z,19.20
2019-05-21T09:41:35.036Z,19.60
2019-05-21T09:44:04.536Z,19.60
2019-05-21T09:46:33.209Z,19.30
2019-05-21T09:49:18.478Z,19.20
2019-05-21T09:51:50.159Z,19.30
2019-05-21T09:54:27.888Z,20.00
2019-05-21T09:56:57.570Z,19.90
2019-05-21T09:59:27.949Z,20.00
2019-05-21T10:02:04.034Z,20.40
2019-05-21T10:04:34.723Z,20.40
2019-05-21T10:07:09.510Z,20.20
2019-05-21T10:09:41.461Z,19.80
2019-05-21T10:12:13.269Z,19.80
2019-05-21T10:15:02.057Z,19.50
2019-05-21T10:17:30.967Z,19.90
2019-05-21T10:19:59.677Z,19.90
2019-05-21T10:22:30.265Z,19.90
2019-05-21T10:25:17.262Z,20.20
2019-05-21T10:27:48.653Z,20.50
2019-05-21T10:30:18.439Z,20.80
2019-05-21T10:32:49.154Z,20.80
2019-05-21T10:35:20.938Z,20.20
2019-05-21T10:38:04.518Z,20.10
2019-05-21T10:40:36.442Z,20.10
2019-05-21T10:43:13.591Z,20.30
2019-05-21T10:45:45.378Z,20.20
2019-05-21T10:48:21.033Z,19.90
2019-05-21T10:51:41.385Z,20.10
2019-05-21T10:54:20.989Z,19.60
2019-05-21T10:56:55.594Z,18.60
2019-05-21T10:59:24.375Z,18.70
2019-05-21T11:02:05.784Z,17.70
2019-05-21T11:04:44.944Z,18.00
2019-05-21T11:07:15.729Z,18.10
2019-05-21T11:09:46.322Z,17.70
2019-05-21T11:12:16.691Z,18.00
2019-05-21T11:14:45.281Z,18.60
2019-05-21T11:17:17.872Z,19.00
2019-05-21T11:19:50.667Z,19.20
2019-05-21T11:25:33.148Z,19.40
2019-05-21T11:28:03.920Z,19.60
2019-05-21T11:30:37.843Z,19.90
2019-05-21T11:33:08.506Z,19.00
2019-05-21T11:35:44.566Z,18.90
2019-05-21T11:38:38.857Z,18.30
2019-05-21T11:40:53.511Z,18.80
2019-05-21T11:43:23.271Z,19.10
2019-05-21T11:45:51.908Z,19.30
2019-05-21T11:48:23.190Z,19.20
2019-05-21T11:50:56.852Z,18.90
2019-05-21T11:53:38.549Z,18.80
2019-05-21T11:56:12.934Z,18.90
2019-05-21T11:58:47.521Z,19.10
2019-05-21T12:01:17.806Z,19.30
2019-05-21T12:03:46.505Z,19.50
2019-05-21T12:06:15.144Z,19.60
2019-05-21T12:08:57.422Z,19.90
2019-05-21T12:11:26.339Z,20.30
2019-05-21T12:13:54.960Z,20.40
2019-05-21T12:16:26.281Z,20.40
2019-05-21T12:19:01.629Z,20.20
2019-05-21T12:21:43.603Z,20.20
2019-05-21T12:24:12.924Z,20.30
2019-05-21T12:26:47.783Z,20.30
2019-05-21T12:29:17.549Z,20.20
2019-05-21T12:31:52.121Z,20.40
2019-05-21T12:34:23.826Z,21.00
2019-05-21T12:36:58.198Z,21.30
2019-05-21T12:39:30.457Z,20.90
2019-05-21T12:42:05.374Z,21.20
2019-05-21T12:44:39.918Z,20.70
2019-05-21T12:47:09.835Z,20.80
2019-05-21T12:49:45.296Z,21.20
2019-05-21T12:52:35.049Z,21.00
2019-05-21T12:55:10.182Z,20.20
2019-05-21T12:57:38.935Z,19.40
2019-05-21T13:00:18.187Z,19.50
2019-05-21T13:02:52.153Z,19.30
2019-05-21T13:05:24.858Z,19.40
2019-05-21T13:08:00.452Z,19.40
2019-05-21T13:10:29.151Z,19.70
2019-05-21T13:13:00.393Z,19.40
2019-05-21T13:15:34.055Z,20.00
2019-05-21T13:18:02.762Z,20.50
2019-05-21T13:20:31.451Z,21.40
2019-05-21T13:23:01.638Z,21.30
2019-05-21T13:25:33.312Z,20.30
2019-05-21T13:28:05.265Z,20.20
2019-05-21T13:30:39.796Z,20.60
2019-05-21T13:33:14.186Z,21.20
2019-05-21T13:35:46.100Z,21.50
2019-05-21T13:38:22.708Z,20.90
2019-05-21T13:40:57.808Z,20.40
2019-05-21T13:43:26.410Z,20.50
2019-05-21T13:45:57.730Z,20.50
2019-05-21T13:48:30.922Z,20.60
2019-05-21T13:51:06.922Z,20.40
2019-05-21T13:53:38.677Z,19.80
2019-05-21T13:56:17.133Z,19.80
2019-05-21T13:58:45.941Z,20.40
2019-05-21T14:01:16.102Z,20.70
2019-05-21T14:03:44.953Z,21.20
2019-05-21T14:06:25.465Z,20.40
2019-05-21T14:08:54.140Z,20.40
2019-05-21T14:11:26.257Z,20.20
2019-05-21T14:14:02.254Z,20.10
2019-05-21T14:16:36.738Z,20.50
2019-05-21T14:19:11.331Z,20.80
2019-05-21T14:21:42.579Z,20.90
2019-05-21T14:24:10.444Z,20.40
2019-05-21T14:26:41.143Z,20.40
2019-05-21T14:29:12.837Z,20.20
2019-05-21T14:31:41.515Z,20.10
2019-05-21T14:34:15.976Z,20.00
2019-05-21T14:36:47.300Z,19.70
2019-05-21T14:39:18.553Z,19.30
2019-05-21T14:42:05.687Z,19.20
2019-05-21T14:44:42.640Z,19.50
2019-05-21T14:47:17.189Z,20.00
2019-05-21T14:49:49.598Z,20.10
2019-05-21T14:52:21.267Z,20.30
2019-05-21T14:54:50.868Z,20.20
2019-05-21T14:57:19.700Z,20.10
2019-05-21T14:59:49.364Z,20.20
2019-05-21T15:02:42.531Z,20.20
2019-05-21T15:05:14.589Z,20.40
2019-05-21T15:07:51.760Z,20.30
2019-05-21T15:10:48.365Z,20.40
2019-05-21T15:13:18.796Z,20.40
2019-05-21T15:15:50.096Z,20.10
2019-05-21T15:18:22.045Z,20.10
2019-05-21T15:20:56.941Z,20.00
2019-05-21T15:23:31.416Z,19.90
2019-05-21T15:26:13.017Z,19.30
2019-05-21T15:28:44.844Z,19.20
2019-05-21T15:31:13.600Z,19.10
2019-05-21T15:33:43.177Z,19.00
2019-05-21T15:36:14.891Z,18.60
2019-05-21T15:38:54.253Z,18.80
2019-05-21T15:41:27.186Z,18.50
2019-05-21T15:44:12.751Z,18.70
2019-05-21T15:46:49.314Z,18.40
2019-05-21T15:49:33.295Z,18.30
2019-05-21T15:51:53.857Z,18.20
2019-05-21T15:54:31.866Z,18.20
2019-05-21T15:57:02.855Z,18.20
2019-05-21T15:59:49.152Z,18.40
2019-05-21T16:03:06.804Z,18.20
2019-05-21T16:05:41.463Z,18.00
2019-05-21T16:08:15.837Z,17.80
2019-05-21T16:10:53.297Z,17.60
2019-05-21T16:13:27.581Z,17.80
2019-05-21T16:15:56.277Z,17.90
2019-05-21T16:18:33.971Z,17.70
2019-05-21T16:21:05.777Z,17.50
2019-05-21T16:23:41.364Z,17.50
2019-05-21T16:26:10.126Z,17.50
2019-05-21T16:28:50.594Z,17.70
2019-05-21T16:31:21.943Z,17.70
2019-05-21T16:33:57.430Z,17.50
2019-05-21T16:36:26.071Z,17.50
2019-05-21T16:38:57.885Z,17.40
2019-05-21T16:41:45.124Z,17.60
2019-05-21T16:44:28.667Z,17.90
2019-05-21T16:47:03.297Z,17.50
2019-05-21T16:49:37.746Z,17.50
2019-05-21T16:52:16.633Z,17.60
2019-05-21T16:54:51.066Z,17.50
2019-05-21T16:57:22.690Z,17.50
2019-05-21T17:00:02.667Z,17.50
2019-05-21T17:02:35.288Z,17.50
2019-05-21T17:05:13.419Z,17.60
2019-05-21T17:07:48.183Z,17.40
2019-05-21T17:10:23.558Z,17.40
2019-05-21T17:12:52.419Z,17.40
2019-05-21T17:15:29.612Z,17.20
2019-05-21T17:18:05.201Z,17.30
2019-05-21T17:20:43.139Z,17.40
2019-05-21T17:23:14.078Z,17.50
2019-05-21T17:25:46.415Z,17.40
2019-05-21T17:28:18.959Z,17.10
2019-05-21T17:30:53.893Z,17.10
2019-05-21T17:33:26.370Z,16.90
2019-05-21T17:36:02.252Z,16.80
2019-05-21T17:38:42.673Z,16.70
2019-05-21T17:41:17.922Z,16.70
2019-05-21T17:43:52.587Z,16.60
2019-05-21T17:46:22.032Z,16.50
2019-05-21T17:48:54.605Z,16.40
2019-05-21T17:51:29.157Z,16.40
2019-05-21T17:53:59.474Z,16.30
2019-05-21T17:56:51.252Z,16.10
2019-05-21T17:59:25.301Z,15.80
2019-05-21T18:01:55.041Z,15.80
2019-05-21T18:04:31.098Z,15.70
2019-05-21T18:07:08.840Z,15.60
2019-05-21T18:09:50.301Z,15.50
2019-05-21T18:15:29.834Z,15.40
2019-05-21T18:18:02.860Z,15.20
2019-05-21T18:20:34.276Z,15.00
2019-05-21T18:23:18.160Z,15.00
2019-05-21T18:26:11.423Z,14.90
2019-05-21T18:28:49.248Z,14.60
2019-05-21T18:31:18.164Z,14.70
2019-05-21T18:33:48.867Z,14.70
2019-05-21T18:36:22.822Z,14.70
2019-05-21T18:38:52.359Z,14.60
2019-05-21T18:41:41.199Z,14.50
2019-05-21T18:44:16.132Z,14.50
2019-05-21T18:46:48.357Z,14.20
2019-05-21T18:49:27.819Z,14.20
2019-05-21T18:51:58.832Z,13.90
2019-05-21T18:54:50.218Z,13.60
2019-05-21T18:57:27.847Z,13.60
2019-05-21T19:00:03.512Z,13.60
2019-05-21T19:02:34.830Z,13.60
2019-05-21T19:05:09.125Z,13.60
2019-05-21T19:07:40.492Z,13.70
2019-05-21T19:10:18.907Z,13.70
2019-05-21T19:12:50.375Z,13.70
2019-05-21T19:15:21.521Z,13.70
2019-05-21T19:18:07.305Z,13.60
2019-05-21T19:20:43.520Z,13.60
2019-05-21T19:23:15.520Z,13.40
2019-05-21T19:25:52.799Z,13.50
2019-05-21T19:28:45.474Z,13.30
2019-05-21T19:31:24.744Z,13.30
2019-05-21T19:34:40.519Z,13.30
2019-05-21T19:37:20.942Z,13.20
2019-05-21T19:40:11.053Z,13.10
2019-05-21T19:42:54.527Z,13.00
2019-05-21T19:45:21.824Z,13.00
2019-05-21T19:48:12.586Z,12.90
2019-05-21T19:50:44.998Z,12.90
2019-05-21T19:53:16.441Z,12.90
2019-05-21T19:56:03.805Z,12.90
2019-05-21T19:58:33.006Z,12.80
2019-05-21T20:01:05.176Z,12.90
2019-05-21T20:03:41.578Z,12.80
2019-05-21T20:06:11.533Z,12.80
2019-05-21T20:08:45.366Z,12.80
2019-05-21T20:11:15.990Z,12.80
2019-05-21T20:13:47.548Z,12.70
2019-05-21T20:16:22.637Z,12.70
2019-05-21T20:18:58.667Z,12.70
2019-05-21T20:21:30.908Z,12.60
2019-05-21T20:24:00.753Z,12.50
2019-05-21T20:26:44.097Z,12.60
2019-05-21T20:29:15.256Z,12.60
2019-05-21T20:31:44.839Z,12.60
2019-05-21T20:34:32.204Z,12.60
2019-05-21T20:37:02.082Z,12.40
2019-05-21T20:39:35.200Z,12.40
2019-05-21T20:42:08.495Z,12.50
2019-05-21T20:44:40.390Z,12.40
2019-05-21T20:47:21.664Z,12.40
2019-05-21T20:49:57.556Z,12.40
2019-05-21T20:52:29.075Z,12.30
2019-05-21T20:55:05.144Z,12.30
2019-05-21T20:57:34.056Z,12.20
2019-05-21T21:00:11.328Z,12.10
2019-05-21T21:02:42.735Z,12.00
2019-05-21T21:05:12.284Z,11.90
2019-05-21T21:07:42.317Z,11.90
2019-05-21T21:10:17.299Z,11.80
2019-05-21T21:12:52.640Z,11.80
2019-05-21T21:15:48.571Z,11.80
2019-05-21T21:18:17.573Z,11.80
2019-05-21T21:21:23.293Z,11.60
2019-05-21T21:24:25.497Z,11.60
2019-05-21T21:27:21.257Z,11.50
2019-05-21T21:30:08.253Z,11.50
2019-05-21T21:33:24.391Z,11.50
2019-05-21T21:35:54.126Z,11.40
2019-05-21T21:38:29.023Z,11.40
2019-05-21T21:41:03.539Z,11.30
2019-05-21T21:44:13.452Z,11.20
2019-05-21T21:46:51.968Z,11.20
2019-05-21T21:49:25.493Z,11.30
2019-05-21T21:52:00.710Z,11.30
2019-05-21T21:54:34.487Z,11.30
2019-05-21T21:57:08.895Z,11.40
2019-05-21T21:59:40.662Z,11.40
2019-05-21T22:02:33.045Z,11.20
2019-05-21T22:05:38.351Z,11.00
2019-05-21T22:08:13.284Z,10.90
2019-05-21T22:10:46.908Z,11.10
2019-05-21T22:13:15.604Z,11.10
2019-05-21T22:15:44.177Z,11.10
2019-05-21T22:18:27.768Z,11.00
2019-05-21T22:21:00.240Z,10.90
2019-05-21T22:23:34.903Z,10.90
2019-05-21T22:26:09.870Z,10.80
2019-05-21T22:28:38.674Z,10.90
2019-05-21T22:31:17.375Z,11.00
2019-05-21T22:33:46.115Z,11.00
2019-05-21T22:36:23.512Z,10.90
2019-05-21T22:38:55.412Z,10.90
2019-05-21T22:41:54.260Z,10.80
2019-05-21T22:44:30.425Z,10.90
2019-05-21T22:47:00.893Z,11.10
2019-05-21T22:50:00.025Z,11.30
2019-05-21T22:52:33.367Z,11.40
2019-05-21T22:55:47.832Z,11.50
2019-05-21T22:58:19.206Z,11.60
2019-05-21T23:00:51.833Z,11.90
2019-05-21T23:03:20.605Z,11.90
2019-05-21T23:05:49.480Z,12.00
2019-05-21T23:08:47.675Z,12.10
2019-05-21T23:11:16.387Z,12.10
2019-05-21T23:13:51.328Z,12.20
2019-05-21T23:16:23.291Z,12.30
2019-05-21T23:19:24.402Z,12.30
2019-05-21T23:21:53.602Z,12.40
2019-05-21T23:24:24.893Z,12.50
2019-05-21T23:27:00.227Z,12.40
2019-05-21T23:29:36.796Z,12.40
2019-05-21T23:32:09.187Z,12.40
2019-05-21T23:34:44.429Z,12.40
2019-05-21T23:37:16.629Z,12.40
2019-05-21T23:39:55.785Z,12.40
2019-05-21T23:42:35.724Z,12.50
2019-05-21T23:45:10.567Z,12.50
2019-05-21T23:48:05.716Z,12.40
2019-05-21T23:50:34.726Z,12.40
2019-05-21T23:53:06.754Z,12.40
2019-05-21T23:55:38.663Z,12.30
2019-05-21T23:58:13.492Z,12.20
